Terminal Aerodrome Forecast
Issued by NWS

Home | Current Version | Previous Version | Text Only | Print | Product List | Glossary On
Versions: 1 2 3 4 5 6 7 8 9 10 11 12 13 14 15 16 17
149
FTUS46 KSEW 111724
TAFBFI
TAF
KBFI 111724Z 1118/1218 13007KT P6SM -RA OVC050
     FM120400 14006KT 6SM -RA OVC040
     FM121200 17008KT 6SM -RA OVC030=

USA.gov is the U.S. government's official web portal to all federal, state and local government web resources and services.